Terminal Aerodrome Forecast
Issued by NWS Sioux Falls, SD

Home | Current Version | Previous Version | Graphics & Text | Print | Product List | Glossary Off
Versions: 1 2 3 4 5 6 7 8 9 10 11 12 13 14 15 16 17 18 19 20 21

000
FTUS43 KFSD 261120
TAFFSD
TAF
KFSD 261120Z 2612/2712 36012KT P6SM OVC012
      TEMPO 2612/2614 5SM -SN
     FM261700 36011KT P6SM OVC015
     FM270100 36010KT 2SM -SN BR OVC010
     FM270500 35012G18KT 1SM -SN BR OVC010
     FM271000 34013G22KT 4SM -SN OVC012=

USA.gov is the U.S. government's official web portal to all federal, state and local government web resources and services.